Time;durP1;ratioP1;P1;durP2;ratioP2;P2;SDS_P1;SDS_P2;PMS_P1;PMS_P2;Temp;Humidity;BMP_temperature;BMP_pressure;BME280_temperature;BME280_humidity;BME280_pressure;Samples;Min_cycle;Max_cycle;Signal;HPM_P1;HPM_P2
2022/05/01 00:00:48;;;;;;;17.42;10.85;;;;;;;5.68;100.00;102585.84;5092808;28;20032;-59
2022/05/01 00:03:30;;;;;;;21.00;10.85;;;;;;;5.67;100.00;102591.97;5093585;28;20059;-59
2022/05/01 00:06:07;;;;;;;16.38;10.38;;;;;;;5.64;100.00;102584.09;5092946;28;20055;-59
2022/05/01 00:08:34;;;;;;;23.73;11.43;;;;;;;5.60;100.00;102584.06;5092640;28;20479;-59
2022/05/01 00:11:01;;;;;;;20.75;11.93;;;;;;;5.56;100.00;102581.44;5093016;28;20372;-60
2022/05/01 00:13:27;;;;;;;20.52;11.60;;;;;;;5.52;100.00;102576.16;5074250;28;20028;-57
2022/05/01 00:15:53;;;;;;;19.75;11.75;;;;;;;5.49;100.00;102579.66;5093756;28;20028;-58
2022/05/01 00:18:19;;;;;;;18.65;11.68;;;;;;;5.47;100.00;102580.50;5074343;28;20024;-57
2022/05/01 00:20:45;;;;;;;19.10;11.75;;;;;;;5.45;100.00;102575.25;5091494;28;20108;-59
2022/05/01 00:23:11;;;;;;;20.30;11.77;;;;;;;5.41;100.00;102578.75;5074427;28;20024;-58
2022/05/01 00:25:38;;;;;;;20.48;11.93;;;;;;;5.38;100.00;102574.34;5073843;28;20040;-58
2022/05/01 00:28:04;;;;;;;16.35;11.10;;;;;;;5.38;100.00;102569.09;5077141;28;20394;-58
2022/05/01 00:30:30;;;;;;;19.40;11.93;;;;;;;5.38;100.00;102570.84;5074508;28;20539;-58
2022/05/01 00:38:24;;;;;;;24.23;12.60;;;;;;;5.31;100.00;102563.81;5092159;28;20085;-58
2022/05/01 00:40:50;;;;;;;21.08;12.35;;;;;;;5.29;100.00;102568.16;5093244;28;20032;-59
2022/05/01 00:43:15;;;;;;;19.27;12.30;;;;;;;5.27;100.00;102570.78;5092013;28;20172;-59
2022/05/01 00:45:41;;;;;;;19.38;12.38;;;;;;;5.25;100.00;102556.75;5091784;28;20032;-58
2022/05/01 00:48:07;;;;;;;19.10;12.13;;;;;;;5.24;100.00;102548.00;5091741;28;20160;-59
2022/05/01 00:50:32;;;;;;;19.17;12.23;;;;;;;5.23;100.00;102551.50;5074355;28;20102;-60
2022/05/01 00:52:58;;;;;;;20.27;12.43;;;;;;;5.21;100.00;102553.22;5093122;28;20028;-59
2022/05/01 00:55:23;;;;;;;18.13;11.35;;;;;;;5.19;100.00;102552.38;5073807;28;20032;-59
2022/05/01 00:57:49;;;;;;;22.55;12.85;;;;;;;5.17;100.00;102550.59;5091836;28;20113;-59
2022/05/01 01:00:19;;;;;;;18.25;11.80;;;;;;;5.16;100.00;102551.47;5074133;28;20039;-59
2022/05/01 01:02:45;;;;;;;19.33;12.63;;;;;;;5.14;100.00;102547.94;5091787;28;20020;-59
2022/05/01 01:05:12;;;;;;;19.65;11.65;;;;;;;5.13;100.00;102548.81;5091737;28;20028;-59
2022/05/01 01:07:38;;;;;;;23.83;12.75;;;;;;;5.12;100.00;102540.06;5092786;28;20111;-60
2022/05/01 01:10:03;;;;;;;21.02;13.02;;;;;;;5.11;100.00;102540.06;5092239;28;20066;-59
2022/05/01 01:15:13;;;;;;;20.95;13.18;;;;;;;5.10;100.00;102547.03;5091640;28;20078;-58
2022/05/01 01:17:43;;;;;;;21.35;12.88;;;;;;;5.07;100.00;102542.66;5073038;28;20479;-59
2022/05/01 01:20:12;;;;;;;21.27;13.23;;;;;;;5.05;100.00;102536.53;5092953;28;20032;-58
2022/05/01 01:22:39;;;;;;;24.13;14.30;;;;;;;5.03;100.00;102538.25;5091686;28;20376;-58
2022/05/01 01:25:09;;;;;;;22.90;13.25;;;;;;;5.01;100.00;102539.13;5091643;28;20073;-58
2022/05/01 01:27:35;;;;;;;22.92;14.05;;;;;;;4.99;100.00;102533.88;5091372;28;20498;-58
2022/05/01 01:32:46;;;;;;;23.50;13.35;;;;;;;4.96;100.00;102539.09;5096032;28;20043;-58
2022/05/01 01:35:14;;;;;;;21.73;14.10;;;;;;;4.96;100.00;102541.72;5095406;28;20066;-58
2022/05/01 01:37:47;;;;;;;26.00;14.05;;;;;;;4.99;100.00;102536.50;5095623;28;20031;-58
2022/05/01 01:40:18;;;;;;;23.27;14.18;;;;;;;5.00;100.00;102530.38;5095590;28;20062;-59
2022/05/01 01:42:46;;;;;;;22.70;13.63;;;;;;;4.97;100.00;102537.34;5061070;28;20507;-58
2022/05/01 01:45:13;;;;;;;19.73;13.18;;;;;;;4.91;100.00;102544.31;5097242;28;20032;-58
2022/05/01 01:47:38;;;;;;;25.20;13.35;;;;;;;4.88;100.00;102536.41;5094560;28;20031;-60
2022/05/01 01:50:05;;;;;;;23.10;13.88;;;;;;;4.86;100.00;102535.53;5077457;28;20036;-59
2022/05/01 01:52:33;;;;;;;22.23;13.25;;;;;;;4.84;100.00;102536.41;5060766;28;20111;-60
2022/05/01 01:54:59;;;;;;;22.98;13.65;;;;;;;4.83;100.00;102542.50;5077594;28;20041;-60
2022/05/01 01:57:25;;;;;;;23.92;13.60;;;;;;;4.82;100.00;102541.66;5076912;28;20522;-59
2022/05/01 01:59:50;;;;;;;17.95;12.55;;;;;;;4.81;100.00;102534.63;5095221;28;20024;-60
2022/05/01 02:02:15;;;;;;;22.08;12.98;;;;;;;4.78;100.00;102539.84;5095202;28;20433;-60
2022/05/01 02:04:41;;;;;;;23.52;13.55;;;;;;;4.75;100.00;102539.84;5077053;28;20028;-60
2022/05/01 02:07:06;;;;;;;22.85;13.63;;;;;;;4.78;100.00;102538.97;5094768;28;20035;-60
2022/05/01 02:09:36;;;;;;;21.25;13.10;;;;;;;4.76;100.00;102538.97;5095980;28;20032;-60
2022/05/01 02:12:01;;;;;;;21.83;13.50;;;;;;;4.78;100.00;102536.34;5095516;28;20027;-60
2022/05/01 02:14:27;;;;;;;23.85;14.00;;;;;;;4.77;100.00;102535.50;5094937;28;20028;-60
2022/05/01 02:16:55;;;;;;;21.40;13.15;;;;;;;4.74;100.00;102533.72;5076415;28;20032;-60
2022/05/01 02:19:20;;;;;;;20.27;12.55;;;;;;;4.70;100.00;102538.94;5094824;28;20035;-60
2022/05/01 02:21:47;;;;;;;22.00;12.95;;;;;;;4.67;100.00;102525.81;5095805;28;20029;-60
2022/05/01 02:24:12;;;;;;;19.58;12.88;;;;;;;4.62;100.00;102520.50;5096979;28;20474;-60
2022/05/01 02:26:38;;;;;;;25.25;14.13;;;;;;;4.61;100.00;102528.38;5114368;28;20076;-59
2022/05/01 02:29:10;;;;;;;22.42;14.38;;;;;;;4.62;100.00;102525.75;5077954;28;20141;-59
2022/05/01 02:31:40;;;;;;;24.13;14.90;;;;;;;4.67;100.00;102526.66;5076522;28;20431;-59
2022/05/01 02:34:06;;;;;;;24.67;14.57;;;;;;;4.70;100.00;102524.06;5095731;28;20096;-59
2022/05/01 02:36:31;;;;;;;23.27;14.10;;;;;;;4.64;100.00;102521.38;5094724;28;20475;-59
2022/05/01 02:38:57;;;;;;;21.70;13.70;;;;;;;4.56;100.00;102520.47;5094069;28;20417;-58
2022/05/01 02:41:22;;;;;;;20.20;13.23;;;;;;;4.53;100.00;102525.69;5094213;28;20039;-58
2022/05/01 02:43:49;;;;;;;22.10;12.98;;;;;;;4.47;100.00;102515.16;5093483;28;20207;-59
2022/05/01 02:46:15;;;;;;;23.20;13.30;;;;;;;4.45;100.00;102502.03;5060838;28;20122;-59
2022/05/01 02:48:41;;;;;;;20.48;12.77;;;;;;;4.44;100.00;102518.63;5093664;28;20036;-59
2022/05/01 02:51:06;;;;;;;22.38;14.32;;;;;;;4.43;100.00;102506.38;5094342;28;20078;-59
2022/05/01 02:53:32;;;;;;;23.73;13.93;;;;;;;4.40;100.00;102512.47;5094231;28;20543;-59
2022/05/01 02:56:02;;;;;;;24.50;13.90;;;;;;;4.38;100.00;102508.09;5093992;28;20035;-59
2022/05/01 02:58:30;;;;;;;23.52;14.85;;;;;;;4.38;100.00;102505.47;5093852;28;20191;-59
2022/05/01 03:00:57;;;;;;;25.35;14.68;;;;;;;4.34;100.00;102506.31;5112539;28;20035;-59
2022/05/01 03:03:23;;;;;;;24.42;15.43;;;;;;;4.31;100.00;102501.91;5114373;28;20030;-59
2022/05/01 03:05:52;;;;;;;23.08;14.68;;;;;;;4.30;100.00;102501.88;5095943;28;20035;-58
2022/05/01 03:08:18;;;;;;;23.00;14.10;;;;;;;4.27;100.00;102502.75;5113371;28;20085;-59
2022/05/01 03:10:44;;;;;;;23.10;14.20;;;;;;;4.25;100.00;102504.50;5093700;28;20475;-59
2022/05/01 03:13:10;;;;;;;26.27;15.35;;;;;;;4.22;100.00;102494.84;5111718;28;20538;-58
2022/05/01 03:15:36;;;;;;;26.27;14.48;;;;;;;4.21;100.00;102503.56;5114217;28;20031;-59
2022/05/01 03:23:29;;;;;;;22.80;14.20;;;;;;;4.13;100.00;102492.16;5093768;28;20035;-58
2022/05/01 03:25:55;;;;;;;25.27;14.27;;;;;;;4.12;100.00;102500.00;5094519;28;20353;-59
2022/05/01 03:28:20;;;;;;;24.23;13.98;;;;;;;4.11;100.00;102488.63;5093362;28;20036;-59
2022/05/01 03:30:46;;;;;;;23.17;14.02;;;;;;;4.10;100.00;102495.63;5074772;28;20122;-59
2022/05/01 03:33:11;;;;;;;25.52;14.65;;;;;;;4.11;100.00;102499.13;5093023;28;20410;-59
2022/05/01 03:35:38;;;;;;;24.70;15.48;;;;;;;4.08;100.00;102486.88;5075069;28;20024;-59
2022/05/01 03:38:04;;;;;;;22.45;14.38;;;;;;;4.08;100.00;102486.88;5094639;28;20024;-59
2022/05/01 03:40:30;;;;;;;27.40;16.42;;;;;;;4.06;100.00;102492.97;5074687;28;20069;-60
2022/05/01 03:42:56;;;;;;;27.15;15.07;;;;;;;4.03;100.00;102492.91;5092916;28;20127;-59
2022/05/01 03:45:21;;;;;;;25.05;14.65;;;;;;;4.02;100.00;102492.06;5093041;28;20123;-59
2022/05/01 03:47:47;;;;;;;22.38;14.77;;;;;;;4.01;100.00;102487.66;5093249;28;20030;-59
2022/05/01 03:50:12;;;;;;;26.10;14.77;;;;;;;3.99;100.00;102489.41;5093583;28;20024;-59
2022/05/01 03:52:38;;;;;;;24.95;15.75;;;;;;;3.96;100.00;102483.25;5074391;28;20024;-59
2022/05/01 03:55:04;;;;;;;25.63;14.88;;;;;;;3.96;100.00;102486.75;5074693;28;20024;-58
2022/05/01 03:57:30;;;;;;;25.10;14.45;;;;;;;3.98;100.00;102486.75;5092834;28;20415;-59
2022/05/01 03:59:55;;;;;;;26.88;15.20;;;;;;;4.00;100.00;102485.03;5103433;28;20070;-59
2022/05/01 04:02:21;;;;;;;21.90;14.63;;;;;;;4.00;100.00;102485.91;5094796;28;20040;-58
2022/05/01 04:04:48;;;;;;;26.08;15.35;;;;;;;4.01;100.00;102478.94;5092838;28;20115;-58
2022/05/01 04:07:13;;;;;;;25.52;16.05;;;;;;;4.01;100.00;102478.94;5074612;28;20024;-58
2022/05/01 04:09:39;;;;;;;27.65;16.10;;;;;;;4.02;100.00;102478.06;5093355;28;20081;-58
2022/05/01 04:12:07;;;;;;;27.25;15.80;;;;;;;4.01;100.00;102490.28;5092336;28;20074;-58
2022/05/01 04:14:34;;;;;;;24.55;15.02;;;;;;;4.02;100.00;102484.19;5074662;28;20028;-60
2022/05/01 04:16:59;;;;;;;26.92;14.75;;;;;;;4.04;100.00;102482.47;5074490;28;20016;-58
2022/05/01 04:19:26;;;;;;;24.30;15.07;;;;;;;4.07;100.00;102482.47;5092675;28;20093;-59
2022/05/01 04:21:51;;;;;;;26.73;14.77;;;;;;;4.11;100.00;102486.00;5093216;28;20023;-58
2022/05/01 04:24:17;;;;;;;25.55;14.75;;;;;;;4.13;100.00;102475.53;5074418;28;20036;-58
2022/05/01 04:26:42;;;;;;;23.73;15.43;;;;;;;4.16;100.00;102491.31;5092219;28;20039;-59
2022/05/01 04:31:51;;;;;;;24.15;14.77;;;;;;;4.24;100.00;102485.22;5091897;28;20129;-59
2022/05/01 04:34:17;;;;;;;25.58;15.10;;;;;;;4.28;100.00;102478.28;5093363;28;20468;-59
2022/05/01 04:36:43;;;;;;;25.90;15.90;;;;;;;4.32;100.00;102489.66;5092135;28;20020;-59
2022/05/01 04:39:08;;;;;;;27.25;14.93;;;;;;;4.36;100.00;102488.81;5092273;28;20020;-59
2022/05/01 04:41:33;;;;;;;27.55;15.65;;;;;;;4.39;100.00;102483.63;5091985;28;20483;-59
2022/05/01 04:43:59;;;;;;;24.33;15.13;;;;;;;4.47;100.00;102489.78;5091824;28;20115;-59
2022/05/01 04:46:24;;;;;;;23.08;14.20;;;;;;;4.55;100.00;102484.59;5093078;28;20024;-59
2022/05/01 04:48:50;;;;;;;23.92;15.02;;;;;;;4.66;100.00;102480.28;5092155;28;20020;-59
2022/05/01 04:51:15;;;;;;;23.17;15.32;;;;;;;4.76;100.00;102489.97;5091850;28;20036;-59
2022/05/01 04:53:41;;;;;;;24.60;14.63;;;;;;;4.87;100.00;102487.44;5091531;28;20528;-59
2022/05/01 04:58:50;;;;;;;26.50;15.27;;;;;;;5.08;100.00;102505.03;5093371;28;20047;-59
2022/05/01 05:01:16;;;;;;;23.27;14.63;;;;;;;5.19;100.00;102499.84;5091653;28;20032;-59
2022/05/01 05:03:41;;;;;;;24.98;15.90;;;;;;;5.29;100.00;102497.25;5091758;28;20043;-59
2022/05/01 05:06:06;;;;;;;24.17;14.80;;;;;;;5.41;100.00;102497.31;5091164;28;20039;-59
2022/05/01 05:11:16;;;;;;;24.27;15.13;;;;;;;5.66;100.00;102506.09;5093020;28;20076;-59
2022/05/01 05:13:42;;;;;;;25.45;14.98;;;;;;;5.77;100.00;102511.41;5090248;28;20438;-59
2022/05/01 05:16:12;;;;;;;24.42;15.90;;;;;;;5.87;100.00;102515.81;5081436;28;20507;-59
2022/05/01 05:18:39;;;;;;;24.05;15.05;;;;;;;6.01;100.00;102513.22;5091683;28;20081;-59
2022/05/01 05:21:05;;;;;;;28.23;16.92;;;;;;;6.10;100.00;102519.38;5091797;28;20112;-59
2022/05/01 05:23:31;;;;;;;27.83;16.98;;;;;;;6.16;100.00;102522.00;5074627;28;20421;-59
2022/05/01 05:25:56;;;;;;;23.85;15.00;;;;;;;6.24;100.00;102525.53;5091734;28;20028;-59
2022/05/01 05:28:21;;;;;;;26.15;16.40;;;;;;;6.29;100.00;102520.25;5091713;28;20118;-59
2022/05/01 05:30:48;;;;;;;27.77;16.55;;;;;;;6.38;100.00;102520.25;5090417;28;20028;-59
2022/05/01 05:33:14;;;;;;;28.58;16.48;;;;;;;6.49;100.00;102521.13;5091767;28;20059;-59
2022/05/01 05:35:40;;;;;;;28.42;17.10;;;;;;;6.60;100.00;102526.38;5077775;28;20032;-59
2022/05/01 05:38:06;;;;;;;24.85;16.58;;;;;;;6.75;100.00;102527.25;5092502;28;20095;-59
2022/05/01 05:40:31;;;;;;;25.45;16.30;;;;;;;6.88;100.00;102524.59;5056890;28;20046;-59
2022/05/01 05:42:56;;;;;;;24.77;16.13;;;;;;;7.02;100.00;102531.56;5091474;28;20052;-59
2022/05/01 05:45:22;;;;;;;25.73;17.02;;;;;;;7.20;100.00;102535.91;5091430;28;20047;-59
2022/05/01 05:47:47;;;;;;;24.92;15.95;;;;;;;7.28;100.00;102538.53;5091423;28;20032;-59
2022/05/01 05:50:13;;;;;;;27.30;16.70;;;;;;;7.36;100.00;102540.22;5092734;28;20463;-59
2022/05/01 05:52:38;;;;;;;27.48;16.65;;;;;;;7.48;100.00;102531.41;5073209;28;20024;-59
2022/05/01 05:55:04;;;;;;;25.35;17.05;;;;;;;7.59;100.00;102546.28;5091098;28;20032;-59
2022/05/01 05:57:30;;;;;;;27.98;16.65;;;;;;;7.61;100.00;102537.50;5091227;28;20036;-58
2022/05/01 05:59:55;;;;;;;26.25;17.33;;;;;;;7.68;100.00;102543.59;5073454;28;20036;-58
2022/05/01 06:02:20;;;;;;;30.60;17.27;;;;;;;7.86;100.00;102538.25;5074075;28;20093;-59
2022/05/01 06:04:46;;;;;;;30.25;18.35;;;;;;;7.98;100.00;102541.66;5073243;28;20058;-58
2022/05/01 06:07:11;;;;;;;30.42;18.38;;;;;;;8.09;100.00;102541.59;5090978;28;20032;-58
2022/05/01 06:09:36;;;;;;;27.05;17.92;;;;;;;8.20;100.00;102542.41;5073527;28;20035;-58
2022/05/01 06:12:02;;;;;;;29.48;18.13;;;;;;;8.28;99.57;102548.50;5074143;28;20462;-58
2022/05/01 06:14:27;;;;;;;27.52;17.35;;;;;;;8.35;99.04;102549.31;5084992;28;20036;-59
2022/05/01 06:16:53;;;;;;;27.25;17.55;;;;;;;8.29;98.67;102547.59;5102034;28;20157;-59
2022/05/01 06:19:18;;;;;;;27.58;17.95;;;;;;;8.36;98.92;102548.41;5109007;28;20080;-59
2022/05/01 06:21:43;;;;;;;32.80;18.98;;;;;;;8.50;99.24;102546.59;5065287;28;20076;-59
2022/05/01 06:24:09;;;;;;;28.52;17.20;;;;;;;8.61;98.09;102553.56;5056750;28;20056;-59
2022/05/01 06:26:34;;;;;;;25.30;16.25;;;;;;;8.71;98.04;102544.66;5093274;28;20070;-59
2022/05/01 06:29:01;;;;;;;25.10;15.48;;;;;;;8.83;96.81;102548.94;5087739;28;20055;-59
2022/05/01 06:31:27;;;;;;;22.42;15.57;;;;;;;8.92;95.89;102548.81;5094552;28;20035;-59
2022/05/01 06:33:54;;;;;;;22.45;14.88;;;;;;;9.07;95.81;102544.28;5094200;28;20475;-59
2022/05/01 06:36:19;;;;;;;22.65;14.27;;;;;;;9.23;95.34;102547.63;5094389;28;20069;-59
2022/05/01 06:38:46;;;;;;;22.65;14.45;;;;;;;9.41;93.42;102542.13;5076414;28;20127;-59
2022/05/01 06:41:11;;;;;;;23.23;15.02;;;;;;;9.44;93.25;102542.06;5094133;28;20414;-58
2022/05/01 06:43:37;;;;;;;22.40;15.00;;;;;;;9.45;93.17;102538.53;5094047;28;20038;-59
2022/05/01 06:46:02;;;;;;;21.38;13.77;;;;;;;9.48;92.40;102548.19;5094106;28;20406;-59
2022/05/01 06:48:28;;;;;;;20.23;14.15;;;;;;;9.57;91.63;102541.91;5093592;28;20119;-59
2022/05/01 06:50:53;;;;;;;21.02;13.43;;;;;;;9.71;91.99;102541.72;5094131;28;20028;-59
2022/05/01 06:53:19;;;;;;;19.50;13.18;;;;;;;9.72;90.38;102543.47;5094075;28;20027;-59
2022/05/01 06:55:44;;;;;;;19.67;12.80;;;;;;;9.74;90.44;102541.69;5094161;28;20027;-59
2022/05/01 06:58:10;;;;;;;19.30;12.60;;;;;;;9.80;90.59;102538.94;5093748;28;20058;-59
2022/05/01 07:00:36;;;;;;;20.05;11.55;;;;;;;9.70;90.22;102543.47;5093647;28;20115;-59
2022/05/01 07:03:01;;;;;;;19.98;13.07;;;;;;;9.59;90.39;102538.34;5093680;28;20489;-59
2022/05/01 07:05:27;;;;;;;18.63;12.48;;;;;;;9.63;91.29;102526.84;5109310;28;20047;-59
2022/05/01 07:07:54;;;;;;;19.08;12.65;;;;;;;9.63;90.72;102539.16;5111836;28;20539;-54
2022/05/01 07:10:21;;;;;;;16.95;11.98;;;;;;;9.80;90.60;102537.16;5094898;28;20024;-56
2022/05/01 07:12:47;;;;;;;18.27;12.02;;;;;;;9.86;90.01;102535.31;5099829;28;20024;-57
2022/05/01 07:15:12;;;;;;;19.63;11.65;;;;;;;9.70;89.71;102532.03;5086459;28;20105;-56
2022/05/01 07:17:38;;;;;;;17.67;11.82;;;;;;;9.68;89.54;102538.22;5074501;28;20032;-55
2022/05/01 07:20:04;;;;;;;18.75;11.02;;;;;;;9.69;89.36;102531.16;5091684;28;20395;-55
2022/05/01 07:22:30;;;;;;;20.88;11.98;;;;;;;9.73;89.50;102532.00;5092873;28;20117;-56
2022/05/01 07:24:56;;;;;;;23.75;12.57;;;;;;;9.79;89.80;102548.63;5075456;28;20114;-55
2022/05/01 07:27:21;;;;;;;22.25;13.02;;;;;;;9.86;89.24;102532.69;5093471;28;20107;-56
2022/05/01 07:29:47;;;;;;;18.58;11.98;;;;;;;9.83;89.28;102536.25;5092618;28;20135;-56
2022/05/01 07:32:12;;;;;;;18.27;11.27;;;;;;;9.81;88.80;102527.47;5075123;28;20043;-56
2022/05/01 07:34:38;;;;;;;20.65;12.15;;;;;;;9.84;88.48;102532.72;5093290;28;20024;-56
2022/05/01 07:37:04;;;;;;;17.42;11.50;;;;;;;9.87;87.81;102531.78;5093051;28;20038;-54
2022/05/01 07:39:30;;;;;;;19.55;12.38;;;;;;;9.84;87.50;102540.66;5092907;28;20103;-54
2022/05/01 07:41:56;;;;;;;24.23;12.68;;;;;;;9.89;87.93;102535.31;5074444;28;20127;-56
2022/05/01 07:44:21;;;;;;;15.90;10.63;;;;;;;10.04;87.73;102539.47;5084324;28;20038;-55
2022/05/01 07:46:46;;;;;;;13.45;10.02;;;;;;;10.27;84.80;102528.53;5078583;28;20048;-52
2022/05/01 07:49:12;;;;;;;14.52;9.25;;;;;;;10.35;83.15;102531.91;5074586;28;20444;-54
2022/05/01 07:51:38;;;;;;;13.23;8.85;;;;;;;10.35;84.24;102531.06;5092312;28;20059;-55
2022/05/01 07:54:04;;;;;;;18.30;10.25;;;;;;;10.26;83.61;102537.38;5074705;28;20486;-54
2022/05/01 07:56:30;;;;;;;16.33;8.98;;;;;;;10.23;84.29;102527.72;5092517;28;20103;-54
2022/05/01 07:58:56;;;;;;;14.68;8.98;;;;;;;10.39;82.96;102530.13;5092630;28;20114;-54
2022/05/01 08:01:21;;;;;;;12.60;7.95;;;;;;;10.54;81.37;102539.56;5091942;28;20123;-54
2022/05/01 08:06:32;;;;;;;12.82;8.02;;;;;;;10.57;79.02;102529.81;5092581;28;20070;-55
2022/05/01 08:08:59;;;;;;;11.18;7.60;;;;;;;10.58;77.72;102531.56;5074169;28;20118;-56
2022/05/01 08:11:24;;;;;;;13.13;8.32;;;;;;;10.68;76.48;102526.09;5092935;28;20099;-56
2022/05/01 08:13:50;;;;;;;11.20;7.50;;;;;;;10.61;75.65;102522.69;5091786;28;20402;-56
2022/05/01 08:16:17;;;;;;;11.25;7.60;;;;;;;10.65;74.18;102517.31;5092728;28;20067;-56
2022/05/01 08:21:28;;;;;;;11.23;6.18;;;;;;;11.10;70.09;102523.50;5092279;28;20046;-56
2022/05/01 08:23:54;;;;;;;10.20;6.68;;;;;;;11.39;70.17;102517.59;5092239;28;20036;-54
2022/05/01 08:26:21;;;;;;;11.48;7.75;;;;;;;11.63;69.35;102515.34;5092331;28;20081;-54
2022/05/01 08:28:47;;;;;;;10.80;7.25;;;;;;;11.64;68.01;102512.66;5091934;28;20043;-55
2022/05/01 08:31:13;;;;;;;10.95;7.00;;;;;;;11.73;69.14;102508.91;5091992;28;20027;-53
2022/05/01 08:33:39;;;;;;;10.35;6.35;;;;;;;12.05;67.04;102509.97;5092108;28;20020;-54
2022/05/01 08:36:06;;;;;;;12.05;6.57;;;;;;;12.33;64.22;102508.41;5093237;28;20055;-55
2022/05/01 08:38:32;;;;;;;10.25;6.35;;;;;;;12.65;63.97;102512.00;5076409;28;20085;-55
2022/05/01 08:40:58;;;;;;;9.05;5.80;;;;;;;12.82;60.49;102503.59;5107829;28;20039;-54
2022/05/01 08:43:25;;;;;;;9.50;5.97;;;;;;;12.91;59.20;102504.19;5090227;28;20052;-53
2022/05/01 08:45:59;;;;;;;11.73;6.30;;;;;;;12.96;57.77;102512.03;5110360;28;20042;-55
2022/05/01 08:48:39;;;;;;;9.10;5.15;;;;;;;13.18;59.07;102500.78;5075160;28;20024;-53
2022/05/01 08:51:05;;;;;;;7.55;5.35;;;;;;;13.20;54.75;102506.94;5098881;28;20019;-49
2022/05/01 08:53:31;;;;;;;10.45;5.80;;;;;;;13.41;55.21;102505.47;5111953;28;20028;-51
2022/05/01 08:55:58;;;;;;;9.10;5.28;;;;;;;13.75;54.48;102504.44;5109414;28;20081;-49
2022/05/01 08:58:26;;;;;;;9.88;4.60;;;;;;;15.17;51.53;102496.03;5112153;28;20093;-50
2022/05/01 09:00:52;;;;;;;8.48;5.30;;;;;;;15.75;47.36;102502.72;5111593;28;20027;-51
2022/05/01 09:03:18;;;;;;;8.32;5.05;;;;;;;16.01;47.29;102499.88;5107117;28;20514;-53
2022/05/01 09:05:44;;;;;;;7.93;5.50;;;;;;;16.05;44.36;102511.31;5094549;28;20107;-55
2022/05/01 09:08:09;;;;;;;9.60;4.78;;;;;;;16.04;42.88;102507.75;5101044;28;20024;-54
2022/05/01 09:10:36;;;;;;;6.53;4.40;;;;;;;16.32;42.93;102511.94;5101535;28;20030;-53
2022/05/01 09:13:01;;;;;;;6.18;3.97;;;;;;;16.91;41.80;102509.44;5073535;28;20472;-54
2022/05/01 09:15:31;;;;;;;7.20;4.85;;;;;;;17.49;39.23;102508.56;5091215;28;20044;-54
2022/05/01 09:18:01;;;;;;;7.90;5.25;;;;;;;17.92;39.52;102508.28;5092748;28;20422;-55
2022/05/01 09:20:27;;;;;;;6.53;4.65;;;;;;;18.59;39.00;102504.94;5074362;28;20090;-53
2022/05/01 09:22:54;;;;;;;7.63;5.20;;;;;;;18.59;37.83;102515.69;5095218;28;20483;-56
2022/05/01 09:25:27;;;;;;;8.63;4.93;;;;;;;18.49;36.54;102497.38;5111427;28;20023;-55
2022/05/01 09:27:59;;;;;;;7.38;5.10;;;;;;;18.28;38.67;102506.53;5093872;28;20046;-56
2022/05/01 09:30:33;;;;;;;8.20;5.00;;;;;;;17.81;38.75;102508.81;5090614;28;20337;-56
2022/05/01 09:33:00;;;;;;;8.63;4.93;;;;;;;17.77;38.70;102514.38;5089875;28;20414;-54
2022/05/01 09:35:27;;;;;;;8.07;4.82;;;;;;;17.27;38.94;102511.34;5095876;28;20032;-55
2022/05/01 09:38:15;;;;;;;8.27;5.22;;;;;;;16.72;41.13;102504.00;5081259;28;20028;-53
2022/05/01 09:40:43;;;;;;;8.45;5.30;;;;;;;16.32;40.69;102508.41;5094054;28;20024;-56
2022/05/01 09:43:08;;;;;;;8.43;5.45;;;;;;;15.76;42.23;102509.78;5095165;28;20118;-54
2022/05/01 09:45:34;;;;;;;8.27;5.47;;;;;;;15.60;42.68;102513.06;5106253;28;20530;-55
2022/05/01 09:48:00;;;;;;;8.85;5.70;;;;;;;15.73;42.48;102516.13;5090756;28;20036;-52
2022/05/01 09:50:43;;;;;;;7.60;5.97;;;;;;;15.40;44.61;102513.84;5068627;28;20032;-56
2022/05/01 09:53:09;;;;;;;9.35;5.43;;;;;;;15.61;43.54;102505.91;5074977;28;20030;-54
2022/05/01 09:55:35;;;;;;;10.02;6.03;;;;;;;15.62;43.06;102521.03;5102191;28;20061;-54
2022/05/01 09:58:12;;;;;;;8.90;6.13;;;;;;;15.10;45.38;102507.88;5115387;28;20063;-55
2022/05/01 10:00:40;;;;;;;8.07;5.45;;;;;;;15.22;45.27;102508.28;5092263;28;20028;-53
2022/05/01 10:03:32;;;;;;;8.50;5.50;;;;;;;15.74;44.92;102517.84;5074731;28;20039;-56
2022/05/01 10:05:59;;;;;;;9.30;5.40;;;;;;;16.21;42.66;102512.41;5106475;28;20524;-56
2022/05/01 10:08:25;;;;;;;8.93;5.57;;;;;;;16.87;40.39;102508.66;5093365;28;20036;-55
2022/05/01 10:11:00;;;;;;;12.13;5.75;;;;;;;16.60;40.03;102504.53;5105625;28;20023;-52
2022/05/01 10:13:27;;;;;;;10.57;5.60;;;;;;;16.95;40.07;102503.00;5094730;28;20058;-56
2022/05/01 10:15:53;;;;;;;7.40;4.90;;;;;;;16.80;39.11;102499.19;5109570;28;20119;-54
2022/05/01 10:18:20;;;;;;;7.88;5.10;;;;;;;16.64;39.61;102503.47;5114750;28;20463;-54
2022/05/01 10:20:45;;;;;;;8.77;5.60;;;;;;;16.69;40.74;102505.00;5111980;28;20139;-57
2022/05/01 10:23:12;;;;;;;7.35;5.70;;;;;;;17.18;39.27;102498.41;5106197;28;20032;-56
2022/05/01 10:25:45;;;;;;;10.70;5.60;;;;;;;18.18;37.75;102498.97;5078625;28;20107;-56
2022/05/01 10:28:37;;;;;;;9.70;5.70;;;;;;;18.39;35.37;102496.13;5074720;28;20020;-54
2022/05/01 10:34:40;;;;;;;7.65;4.75;;;;;;;18.74;35.34;102482.66;5074386;28;20043;-56
2022/05/01 10:37:24;;;;;;;9.18;5.25;;;;;;;18.15;35.84;102490.22;5103118;28;20027;-55
2022/05/01 10:39:50;;;;;;;8.10;5.55;;;;;;;17.73;37.80;102486.00;5110764;28;20028;-54
2022/05/01 10:42:32;;;;;;;7.22;5.18;;;;;;;17.61;38.05;102485.66;5096953;28;20040;-57
2022/05/01 10:44:58;;;;;;;8.88;5.65;;;;;;;17.98;38.65;102475.84;5097456;28;20023;-54
2022/05/01 10:47:36;;;;;;;10.30;5.80;;;;;;;18.34;36.84;102479.41;5114158;28;20157;-53
2022/05/01 10:50:08;;;;;;;9.25;5.80;;;;;;;18.99;35.12;102474.19;5114039;28;20028;-56
2022/05/01 10:52:34;;;;;;;8.95;5.70;;;;;;;19.26;34.24;102470.06;5097468;28;20024;-56
2022/05/01 10:55:04;;;;;;;7.38;5.85;;;;;;;20.20;34.15;102466.50;5103992;28;20019;-56
2022/05/01 10:57:30;;;;;;;7.60;5.30;;;;;;;20.55;32.52;102469.75;5093086;28;20032;-55
2022/05/01 11:00:05;;;;;;;8.70;5.93;;;;;;;21.21;32.04;102453.97;5105084;28;20498;-57
2022/05/01 11:02:30;;;;;;;7.30;5.60;;;;;;;21.38;30.67;102463.69;5076095;28;20028;-55
2022/05/01 11:04:57;;;;;;;8.25;5.53;;;;;;;21.54;30.99;102455.44;5109858;28;20028;-57
2022/05/01 11:07:25;;;;;;;6.00;5.18;;;;;;;21.77;31.32;102447.69;5092087;28;20043;-57
2022/05/01 11:09:51;;;;;;;7.72;5.63;;;;;;;21.96;29.01;102452.72;5095837;28;20028;-55
2022/05/01 11:12:26;;;;;;;9.35;5.40;;;;;;;21.43;30.86;102444.50;5085474;28;20042;-56
2022/05/01 11:14:52;;;;;;;7.80;5.53;;;;;;;21.44;30.35;102443.53;5092024;28;20028;-56
2022/05/01 11:17:36;;;;;;;9.18;6.28;;;;;;;20.72;32.08;102444.50;5093152;28;20558;-55
2022/05/01 11:20:05;;;;;;;8.88;6.18;;;;;;;20.80;31.14;102430.56;5080214;28;20514;-54
2022/05/01 11:22:31;;;;;;;6.93;5.03;;;;;;;21.37;31.28;102437.69;5075230;28;20487;-56
2022/05/01 11:24:57;;;;;;;8.02;5.75;;;;;;;21.64;30.91;102427.91;5083635;28;20024;-54
2022/05/01 11:27:23;;;;;;;7.45;4.95;;;;;;;22.03;29.95;102421.63;5075812;28;20032;-56
2022/05/01 11:30:06;;;;;;;9.82;6.03;;;;;;;22.09;29.57;102428.47;5098512;28;20039;-56
2022/05/01 11:32:45;;;;;;;9.13;5.43;;;;;;;22.01;28.89;102429.00;5090723;28;20028;-56
2022/05/01 11:35:14;;;;;;;7.65;5.28;;;;;;;21.74;29.23;102421.81;5092128;28;20016;-55
2022/05/01 11:38:06;;;;;;;8.15;6.05;;;;;;;21.06;30.31;102418.16;5084103;28;20062;-56
2022/05/01 11:40:32;;;;;;;8.32;5.35;;;;;;;21.60;29.04;102419.19;5074584;28;20024;-55
2022/05/01 11:43:18;;;;;;;8.07;5.47;;;;;;;21.16;30.68;102404.06;5067548;28;20048;-55
2022/05/01 11:45:45;;;;;;;10.07;6.15;;;;;;;20.46;31.92;102413.78;5072447;28;20036;-56
2022/05/01 11:48:15;;;;;;;8.45;6.15;;;;;;;20.44;31.90;102404.97;5091966;28;20035;-55